Indian Island, Washington
Current Conditions -  °F | °C
As of 11:56 PM on Thursday 23 Oct 2014 (Local Time) from KNUW Reporting Station
Overcast Overcast  
Wind Chill: 52°   Ceiling: 2200
Heat Index: 52°   Visibility: 10mi
Dew Point: 45°   Wind: 9mph
Humidity: 77%   Direction: 100°E
Pressure: 29.99"   Gusts: NA
Location:  48.0545°N, 122.706°W
Report Text: KNUW 240656Z 10008KT 10SM BKN022 BKN080 OVC160 11/07 A2999 RMK AO2 SLP159 T01110072 401560089 $
Loading
Personal Weather Stations






























Interactive Weather Map
Tropical Storm Tracking
New forecast layout! Learn more

10-Day Weather Forecast

Advertisements
Track Severe Weather on mobile